Time;durP1;ratioP1;P1;durP2;ratioP2;P2;SDS_P1;SDS_P2;PMS_P1;PMS_P2;Temp;Humidity;BMP_temperature;BMP_pressure;BME280_temperature;BME280_humidity;BME280_pressure;Samples;Min_cycle;Max_cycle;Signal;HPM_P1;HPM_P2
2021/09/15 00:01:15;;;;;;;0.80;0.73;;;20.20;99.90;;;;;;5053342;28;20453;-86
2021/09/15 00:03:41;;;;;;;1.37;1.23;;;20.10;99.90;;;;;;5045374;28;20441;-86
2021/09/15 00:06:08;;;;;;;3.60;1.33;;;20.20;99.90;;;;;;5053071;28;20441;-85
2021/09/15 00:08:36;;;;;;;2.90;1.27;;;20.20;99.90;;;;;;5052900;28;20465;-85
2021/09/15 00:11:03;;;;;;;1.10;1.00;;;20.10;99.90;;;;;;5052930;28;20448;-85
2021/09/15 00:13:30;;;;;;;2.07;1.20;;;20.10;99.90;;;;;;5052943;28;20441;-85
2021/09/15 00:15:57;;;;;;;2.00;1.30;;;20.10;99.90;;;;;;5053136;28;20491;-85
2021/09/15 00:18:24;;;;;;;1.30;1.20;;;20.10;99.90;;;;;;5054869;28;20979;-85
2021/09/15 00:20:51;;;;;;;1.50;0.90;;;20.10;99.90;;;;;;5057226;28;20449;-86
2021/09/15 00:23:18;;;;;;;3.43;1.63;;;20.10;99.90;;;;;;5057864;28;20457;-85
2021/09/15 00:25:46;;;;;;;3.83;1.00;;;20.10;99.90;;;;;;5057133;28;20441;-85
2021/09/15 00:28:13;;;;;;;2.07;1.90;;;20.10;99.90;;;;;;5057087;28;20449;-82
2021/09/15 00:30:39;;;;;;;1.03;0.90;;;20.10;99.90;;;;;;5056658;28;20846;-82
2021/09/15 00:33:06;;;;;;;2.30;1.10;;;20.10;99.90;;;;;;5057075;28;20448;-82
2021/09/15 00:35:33;;;;;;;3.20;1.73;;;20.10;99.90;;;;;;5056868;28;20481;-82
2021/09/15 00:38:00;;;;;;;1.30;1.03;;;20.10;99.90;;;;;;5056797;28;20456;-82
2021/09/15 00:40:27;;;;;;;0.83;0.83;;;20.10;99.90;;;;;;5056671;28;20476;-82
2021/09/15 00:42:55;;;;;;;1.00;0.90;;;20.10;99.90;;;;;;5056486;28;20433;-82
2021/09/15 00:45:22;;;;;;;1.40;1.27;;;20.10;99.90;;;;;;5056434;28;20476;-81
2021/09/15 00:47:49;;;;;;;1.83;1.20;;;20.10;99.90;;;;;;5056392;28;20433;-82
2021/09/15 00:50:16;;;;;;;1.10;1.00;;;20.10;99.90;;;;;;5056429;28;20507;-81
2021/09/15 00:52:43;;;;;;;1.07;0.97;;;20.10;99.90;;;;;;5056323;28;20437;-82
2021/09/15 00:55:11;;;;;;;2.33;2.00;;;20.10;99.90;;;;;;5056121;28;21030;-82
2021/09/15 00:57:38;;;;;;;2.00;1.47;;;20.00;99.90;;;;;;5056472;28;20460;-82
2021/09/15 01:00:07;;;;;;;1.13;0.87;;;20.00;99.90;;;;;;5056159;28;20468;-82
2021/09/15 01:02:34;;;;;;;0.80;0.80;;;20.00;99.90;;;;;;5056360;28;20453;-82
2021/09/15 01:05:01;;;;;;;1.00;1.00;;;19.90;99.90;;;;;;5056319;28;20449;-82
2021/09/15 01:07:28;;;;;;;1.63;1.20;;;19.90;99.90;;;;;;5056695;28;20808;-82
2021/09/15 01:09:55;;;;;;;1.73;1.17;;;19.90;99.90;;;;;;5056177;28;20473;-81
2021/09/15 01:12:23;;;;;;;1.43;1.00;;;19.90;99.90;;;;;;5056180;28;20482;-81
2021/09/15 01:14:49;;;;;;;1.67;1.30;;;19.90;99.90;;;;;;5056082;28;20445;-81
2021/09/15 01:17:17;;;;;;;3.37;1.07;;;19.90;99.90;;;;;;5056111;28;20824;-81
2021/09/15 01:19:44;;;;;;;3.53;1.80;;;19.90;99.90;;;;;;5056036;28;20476;-81
2021/09/15 01:22:12;;;;;;;1.50;1.40;;;19.90;99.90;;;;;;5055779;28;20429;-81
2021/09/15 01:24:40;;;;;;;2.30;1.90;;;19.90;99.90;;;;;;5055659;28;20809;-81
2021/09/15 01:27:06;;;;;;;1.23;0.97;;;19.90;99.90;;;;;;5055926;28;20456;-81
2021/09/15 01:29:34;;;;;;;2.60;1.20;;;19.90;99.90;;;;;;5054689;28;20469;-81
2021/09/15 01:32:03;;;;;;;1.87;1.40;;;19.90;99.90;;;;;;5056106;28;20812;-81
2021/09/15 01:34:34;;;;;;;0.80;0.77;;;19.90;99.90;;;;;;5055755;28;20458;-82
2021/09/15 01:37:01;;;;;;;1.83;1.03;;;19.90;99.90;;;;;;5055771;28;20465;-81
2021/09/15 01:39:29;;;;;;;1.10;1.07;;;19.90;99.90;;;;;;5055297;28;20469;-81
2021/09/15 01:41:58;;;;;;;1.17;1.07;;;19.90;99.90;;;;;;5055636;28;20524;-81
2021/09/15 01:44:32;;;;;;;1.90;1.33;;;19.90;99.90;;;;;;5055128;28;20457;-82
2021/09/15 01:47:00;;;;;;;1.13;0.87;;;19.80;99.90;;;;;;5056035;28;20495;-81
2021/09/15 01:49:28;;;;;;;1.63;1.50;;;19.90;99.90;;;;;;5055126;28;20465;-81
2021/09/15 01:51:55;;;;;;;4.70;1.67;;;19.90;99.90;;;;;;5055177;28;20815;-81
2021/09/15 01:54:21;;;;;;;1.97;1.33;;;19.80;99.90;;;;;;5055991;28;20454;-81
2021/09/15 01:56:50;;;;;;;3.63;1.43;;;19.80;99.90;;;;;;5055302;28;20484;-81
2021/09/15 01:59:16;;;;;;;2.03;1.10;;;19.80;99.90;;;;;;5055131;28;20810;-81
2021/09/15 02:01:43;;;;;;;1.40;1.30;;;19.80;99.90;;;;;;5055269;28;20450;-81
2021/09/15 02:04:10;;;;;;;1.43;1.17;;;19.70;99.90;;;;;;5055238;28;20449;-81
2021/09/15 02:06:37;;;;;;;2.67;1.43;;;19.70;99.90;;;;;;5055711;28;20445;-81
2021/09/15 02:09:04;;;;;;;2.80;1.77;;;19.70;99.90;;;;;;5054763;28;20976;-81
2021/09/15 02:11:31;;;;;;;1.07;1.00;;;19.70;99.90;;;;;;5055123;28;20437;-81
2021/09/15 02:14:00;;;;;;;1.47;1.37;;;19.70;99.90;;;;;;5054601;28;20823;-81
2021/09/15 02:16:27;;;;;;;3.43;1.60;;;19.70;99.90;;;;;;5054638;28;20472;-81
2021/09/15 02:18:54;;;;;;;1.80;1.13;;;19.70;99.90;;;;;;5054883;28;20465;-81
2021/09/15 02:21:21;;;;;;;1.53;1.30;;;19.60;99.90;;;;;;5054873;28;20448;-82
2021/09/15 02:23:47;;;;;;;2.00;1.83;;;19.60;99.90;;;;;;5054530;28;20445;-81
2021/09/15 02:26:15;;;;;;;1.83;1.23;;;19.60;99.90;;;;;;5054829;28;20467;-82
2021/09/15 02:28:42;;;;;;;1.93;1.13;;;19.60;99.90;;;;;;5054359;28;20477;-81
2021/09/15 02:31:11;;;;;;;1.27;1.17;;;19.60;99.90;;;;;;5054681;28;20445;-81
2021/09/15 02:33:38;;;;;;;1.77;1.33;;;19.60;99.90;;;;;;5054390;28;20794;-82
2021/09/15 02:36:05;;;;;;;1.47;1.37;;;19.60;99.90;;;;;;5054272;28;20984;-82
2021/09/15 02:38:32;;;;;;;1.90;0.87;;;19.60;99.90;;;;;;5054443;28;20844;-86
2021/09/15 02:40:59;;;;;;;1.40;1.17;;;19.50;99.90;;;;;;5054452;28;20430;-86
2021/09/15 02:43:25;;;;;;;2.07;1.37;;;19.50;99.90;;;;;;5054337;28;20449;-85
2021/09/15 02:45:53;;;;;;;0.90;0.77;;;19.50;99.90;;;;;;5054355;28;20480;-87
2021/09/15 02:48:21;;;;;;;2.20;1.67;;;19.50;99.90;;;;;;5055592;28;20941;-87
2021/09/15 02:50:48;;;;;;;1.90;1.10;;;19.50;99.90;;;;;;5054600;28;20457;-87
2021/09/15 02:53:14;;;;;;;2.13;1.07;;;19.50;99.90;;;;;;5054943;28;20446;-88
2021/09/15 02:55:41;;;;;;;0.90;0.90;;;19.50;99.90;;;;;;5054688;28;20485;-87
2021/09/15 02:58:08;;;;;;;1.33;1.20;;;19.50;99.90;;;;;;5054604;28;20441;-86
2021/09/15 03:00:35;;;;;;;0.80;0.80;;;19.50;99.90;;;;;;5054337;28;20456;-85
2021/09/15 03:03:02;;;;;;;3.03;1.10;;;19.40;99.90;;;;;;5054122;28;20454;-85
2021/09/15 03:05:31;;;;;;;1.20;1.10;;;19.40;99.90;;;;;;5054099;28;20450;-85
2021/09/15 03:07:58;;;;;;;1.13;0.90;;;19.40;99.90;;;;;;5054163;28;20499;-85
2021/09/15 03:10:25;;;;;;;2.10;1.00;;;19.40;99.90;;;;;;5054072;28;20462;-86
2021/09/15 03:12:52;;;;;;;0.83;0.77;;;19.50;99.90;;;;;;5054121;28;20457;-86
2021/09/15 03:15:19;;;;;;;2.60;1.30;;;19.50;99.90;;;;;;5054120;28;20446;-85
2021/09/15 03:17:45;;;;;;;1.10;1.03;;;19.50;99.90;;;;;;5053937;28;20484;-86
2021/09/15 03:20:13;;;;;;;1.50;0.80;;;19.50;99.90;;;;;;5053920;28;20473;-86
2021/09/15 03:22:41;;;;;;;2.00;0.90;;;19.50;99.90;;;;;;5053909;28;20449;-85
2021/09/15 03:25:08;;;;;;;1.20;1.10;;;19.50;99.90;;;;;;5053613;28;20438;-86
2021/09/15 03:27:35;;;;;;;1.17;0.80;;;19.50;99.90;;;;;;5053743;28;20446;-85
2021/09/15 03:30:03;;;;;;;1.03;1.00;;;19.60;99.90;;;;;;5053728;28;20488;-85
2021/09/15 03:32:29;;;;;;;1.67;1.57;;;19.50;99.90;;;;;;5053768;28;20446;-86
2021/09/15 03:34:56;;;;;;;1.10;1.00;;;19.50;99.90;;;;;;5053493;28;20436;-86
2021/09/15 03:37:23;;;;;;;3.67;1.23;;;19.50;99.90;;;;;;5053675;28;20488;-85
2021/09/15 03:39:51;;;;;;;1.00;1.00;;;19.50;99.90;;;;;;5053542;28;20477;-85
2021/09/15 03:42:18;;;;;;;2.83;0.83;;;19.50;99.90;;;;;;5053267;28;20975;-86
2021/09/15 03:44:44;;;;;;;0.90;0.90;;;19.50;99.90;;;;;;5053221;28;20434;-85
2021/09/15 03:47:11;;;;;;;1.70;0.90;;;19.50;99.90;;;;;;5053558;28;20433;-85
2021/09/15 03:49:38;;;;;;;2.87;1.20;;;19.50;99.90;;;;;;5053447;28;20477;-86
2021/09/15 03:52:05;;;;;;;0.90;0.80;;;19.50;99.90;;;;;;5053001;28;20448;-86
2021/09/15 03:54:32;;;;;;;1.33;1.20;;;19.50;99.90;;;;;;5061888;28;20442;-85
2021/09/15 03:57:00;;;;;;;1.33;1.10;;;19.50;99.90;;;;;;5053192;28;20478;-85
2021/09/15 03:59:26;;;;;;;1.47;0.93;;;19.50;99.90;;;;;;5053279;28;20465;-85
2021/09/15 04:01:53;;;;;;;1.60;1.50;;;19.40;99.90;;;;;;5053322;28;20452;-85
2021/09/15 04:04:20;;;;;;;1.13;0.80;;;19.50;99.90;;;;;;5053151;28;20441;-87
2021/09/15 04:06:47;;;;;;;1.27;0.60;;;19.50;99.90;;;;;;5053498;28;20442;-88
2021/09/15 04:09:14;;;;;;;3.87;1.13;;;19.50;99.90;;;;;;5053648;28;20473;-87
2021/09/15 04:11:41;;;;;;;1.20;1.10;;;19.50;99.90;;;;;;5053366;28;20460;-87
2021/09/15 04:14:09;;;;;;;0.97;0.87;;;19.40;99.90;;;;;;5053592;28;20827;-87
2021/09/15 04:16:36;;;;;;;1.80;0.90;;;19.30;99.90;;;;;;5053519;28;20486;-86
2021/09/15 04:19:03;;;;;;;1.50;0.70;;;19.30;99.90;;;;;;5053314;28;20472;-86
2021/09/15 04:21:30;;;;;;;1.57;1.37;;;19.20;99.90;;;;;;5053409;28;20480;-86
2021/09/15 04:24:22;;;;;;;2.60;0.87;;;19.20;99.90;;;;;;5053467;28;20476;-87
2021/09/15 04:32:27;;;;;;;1.67;0.93;;;19.10;99.90;;;;;;5017937;28;20437;-86
2021/09/15 04:34:53;;;;;;;1.10;1.00;;;19.10;99.90;;;;;;5053295;28;20449;-85
2021/09/15 04:37:20;;;;;;;1.10;1.10;;;19.10;99.90;;;;;;5053121;28;20481;-86
2021/09/15 04:39:47;;;;;;;2.10;0.93;;;19.10;99.90;;;;;;5052864;28;20445;-86
2021/09/15 04:42:13;;;;;;;1.07;0.80;;;19.10;99.90;;;;;;5053121;28;20445;-86
2021/09/15 04:44:42;;;;;;;2.40;0.93;;;19.10;99.90;;;;;;5052857;28;20520;-86
2021/09/15 04:47:08;;;;;;;1.97;1.23;;;19.10;99.90;;;;;;5053102;28;20426;-86
2021/09/15 04:49:35;;;;;;;1.33;1.10;;;19.00;99.90;;;;;;5052768;28;20472;-84
2021/09/15 04:52:02;;;;;;;1.30;0.90;;;19.10;99.90;;;;;;5053425;28;20461;-84
2021/09/15 04:54:29;;;;;;;0.70;0.70;;;19.00;99.90;;;;;;5052822;28;20460;-84
2021/09/15 04:56:56;;;;;;;1.00;1.00;;;18.90;99.90;;;;;;5052683;28;20485;-83
2021/09/15 04:59:22;;;;;;;1.23;0.60;;;18.80;99.90;;;;;;5052621;28;20465;-84
2021/09/15 05:01:50;;;;;;;1.27;0.90;;;18.70;99.90;;;;;;5052709;28;20461;-83
2021/09/15 05:04:17;;;;;;;1.03;1.03;;;18.60;99.90;;;;;;5052731;28;20450;-82
2021/09/15 05:06:44;;;;;;;3.00;1.37;;;18.50;99.90;;;;;;5056326;28;20449;-82
2021/09/15 05:09:10;;;;;;;1.50;0.80;;;18.40;99.90;;;;;;5056532;28;20474;-82
2021/09/15 05:11:37;;;;;;;1.30;0.90;;;18.30;99.90;;;;;;5056112;28;20453;-82
2021/09/15 05:14:04;;;;;;;1.20;0.73;;;18.20;99.90;;;;;;5056145;28;20453;-81
2021/09/15 05:16:31;;;;;;;0.70;0.67;;;18.20;99.90;;;;;;5055769;28;20484;-81
2021/09/15 05:19:00;;;;;;;1.37;0.70;;;18.20;99.90;;;;;;5056030;28;20470;-81
2021/09/15 05:21:26;;;;;;;2.60;1.23;;;18.10;99.90;;;;;;5055717;28;20441;-81
2021/09/15 05:23:53;;;;;;;2.17;1.00;;;18.10;99.90;;;;;;5055995;28;20452;-81
2021/09/15 05:26:20;;;;;;;0.93;0.83;;;18.20;99.90;;;;;;5055906;28;20458;-81
2021/09/15 05:28:47;;;;;;;0.97;0.97;;;18.10;99.90;;;;;;5055594;28;20458;-83
2021/09/15 05:31:13;;;;;;;1.67;1.20;;;18.10;99.90;;;;;;5055849;28;20461;-83
2021/09/15 05:33:40;;;;;;;3.30;1.53;;;18.10;99.90;;;;;;5055798;28;20453;-83
2021/09/15 05:36:08;;;;;;;1.93;1.03;;;18.00;99.90;;;;;;5055470;28;20949;-83
2021/09/15 05:38:35;;;;;;;1.20;1.10;;;18.00;99.90;;;;;;5055584;28;20482;-83
2021/09/15 05:41:02;;;;;;;1.33;1.23;;;18.00;99.90;;;;;;5055645;28;20453;-84
2021/09/15 05:43:28;;;;;;;2.03;1.10;;;17.90;99.90;;;;;;5055309;28;20961;-83
2021/09/15 05:45:55;;;;;;;2.20;1.00;;;17.90;99.90;;;;;;5055254;28;20480;-84
2021/09/15 05:48:22;;;;;;;3.17;1.00;;;17.90;99.90;;;;;;5055874;28;20798;-84
2021/09/15 05:50:49;;;;;;;2.07;1.87;;;17.90;99.90;;;;;;5055193;28;20449;-84
2021/09/15 05:53:17;;;;;;;1.00;0.90;;;17.90;99.90;;;;;;5055477;28;20446;-84
2021/09/15 05:55:44;;;;;;;1.50;0.90;;;17.80;99.90;;;;;;5047359;28;20438;-85
2021/09/15 05:58:11;;;;;;;1.40;1.10;;;17.80;99.90;;;;;;5055201;28;20486;-85
2021/09/15 06:00:37;;;;;;;0.80;0.80;;;17.80;99.90;;;;;;5055385;28;20445;-85
2021/09/15 06:03:04;;;;;;;2.63;1.60;;;17.80;99.90;;;;;;5055719;28;20458;-84
2021/09/15 06:05:31;;;;;;;0.80;0.80;;;17.80;99.90;;;;;;5055241;28;20445;-84
2021/09/15 06:07:58;;;;;;;1.83;1.30;;;17.80;99.90;;;;;;5055243;28;20445;-84
2021/09/15 06:10:26;;;;;;;1.00;0.73;;;17.70;99.90;;;;;;5054832;28;20973;-84
2021/09/15 06:12:53;;;;;;;0.70;0.70;;;17.80;99.90;;;;;;5055119;28;20804;-84
2021/09/15 06:15:19;;;;;;;1.53;1.43;;;17.80;99.90;;;;;;5054715;28;20426;-84
2021/09/15 06:17:46;;;;;;;2.53;0.90;;;17.80;99.90;;;;;;5054614;28;20484;-83
2021/09/15 06:20:14;;;;;;;1.37;1.30;;;17.80;99.90;;;;;;5054649;28;20457;-83
2021/09/15 06:22:40;;;;;;;1.33;1.10;;;17.70;99.90;;;;;;5054553;28;20450;-83
2021/09/15 06:25:09;;;;;;;1.70;1.30;;;17.70;99.90;;;;;;5054594;28;20933;-83
2021/09/15 06:27:38;;;;;;;1.57;0.97;;;17.80;99.90;;;;;;5054785;28;20452;-84
2021/09/15 06:30:06;;;;;;;0.90;0.77;;;17.80;99.90;;;;;;5054448;28;20847;-84
2021/09/15 06:32:33;;;;;;;2.23;1.20;;;17.80;99.90;;;;;;5054358;28;20949;-84
2021/09/15 06:34:59;;;;;;;4.77;1.37;;;17.80;99.90;;;;;;5054666;28;20450;-83
2021/09/15 06:37:27;;;;;;;1.27;1.00;;;17.70;99.90;;;;;;5054486;28;20484;-83
2021/09/15 06:39:53;;;;;;;1.20;1.10;;;17.70;99.90;;;;;;5054282;28;20477;-83
2021/09/15 06:42:20;;;;;;;1.70;1.60;;;17.70;99.90;;;;;;5054238;28;20438;-83
2021/09/15 06:44:48;;;;;;;1.20;1.10;;;17.60;99.90;;;;;;5054240;28;20438;-83
2021/09/15 06:47:15;;;;;;;0.70;0.53;;;17.60;99.90;;;;;;5054208;28;20418;-83
2021/09/15 06:49:42;;;;;;;1.13;0.80;;;17.60;99.90;;;;;;5054278;28;20465;-83
2021/09/15 06:52:09;;;;;;;1.43;0.70;;;17.70;99.90;;;;;;5054134;28;20452;-83
2021/09/15 06:54:35;;;;;;;0.90;0.70;;;17.70;99.90;;;;;;5054291;28;20450;-83
2021/09/15 06:57:02;;;;;;;0.80;0.80;;;17.70;99.90;;;;;;5054065;28;20838;-83
2021/09/15 06:59:29;;;;;;;0.80;0.80;;;17.70;99.90;;;;;;5053787;28;20811;-83
2021/09/15 07:01:57;;;;;;;1.83;1.17;;;17.70;99.90;;;;;;5054116;28;20449;-83
2021/09/15 07:04:24;;;;;;;1.00;0.67;;;17.70;99.90;;;;;;5054206;28;20458;-83
2021/09/15 07:06:50;;;;;;;0.90;0.70;;;17.80;99.90;;;;;;5054045;28;20458;-83
2021/09/15 07:09:17;;;;;;;0.83;0.80;;;17.80;99.90;;;;;;5053968;28;20474;-83
2021/09/15 07:11:44;;;;;;;2.70;0.77;;;17.80;99.90;;;;;;5053694;28;20446;-84
2021/09/15 07:14:10;;;;;;;1.10;0.60;;;17.80;99.90;;;;;;5053940;28;20446;-84
2021/09/15 07:16:38;;;;;;;0.70;0.70;;;17.90;99.90;;;;;;5053890;28;20453;-83
2021/09/15 07:19:06;;;;;;;0.87;0.87;;;17.90;99.90;;;;;;5053659;28;20528;-82
2021/09/15 07:21:33;;;;;;;1.07;0.73;;;17.90;99.90;;;;;;5053819;28;20430;-82
2021/09/15 07:24:00;;;;;;;0.80;0.80;;;17.80;99.90;;;;;;5053741;28;20465;-82
2021/09/15 07:26:27;;;;;;;1.20;0.57;;;17.90;99.90;;;;;;5053722;28;20529;-82
2021/09/15 07:28:54;;;;;;;0.70;0.50;;;17.90;99.90;;;;;;5052951;28;20457;-83
2021/09/15 07:31:21;;;;;;;7.83;0.90;;;17.90;99.90;;;;;;5053326;28;20454;-83
2021/09/15 07:33:48;;;;;;;1.23;0.63;;;18.00;99.90;;;;;;5053640;28;20433;-82
2021/09/15 07:36:16;;;;;;;0.97;0.60;;;18.10;99.90;;;;;;5053770;28;20827;-83
2021/09/15 07:38:43;;;;;;;1.00;0.90;;;18.10;99.90;;;;;;5053386;28;20489;-83
2021/09/15 07:41:10;;;;;;;1.13;0.67;;;18.00;99.90;;;;;;5053378;28;20422;-82
2021/09/15 07:43:37;;;;;;;0.90;0.53;;;18.00;99.90;;;;;;5053471;28;20453;-82
2021/09/15 07:46:03;;;;;;;0.50;0.50;;;18.00;99.90;;;;;;5053039;28;20482;-83
2021/09/15 07:48:31;;;;;;;0.80;0.50;;;17.90;99.90;;;;;;5053262;28;20548;-83
2021/09/15 07:50:58;;;;;;;0.40;0.40;;;18.00;99.90;;;;;;5053380;28;20453;-83
2021/09/15 07:53:26;;;;;;;1.77;0.70;;;18.00;99.90;;;;;;5053020;28;20948;-83
2021/09/15 07:55:53;;;;;;;0.77;0.77;;;18.00;99.90;;;;;;5053309;28;20458;-80
2021/09/15 07:58:19;;;;;;;1.33;0.63;;;18.00;99.90;;;;;;5053908;28;20848;-80
2021/09/15 08:00:46;;;;;;;0.50;0.50;;;17.90;99.90;;;;;;5053246;28;20457;-80
2021/09/15 08:03:13;;;;;;;0.80;0.80;;;18.00;99.90;;;;;;5053107;28;20430;-77
2021/09/15 08:05:40;;;;;;;2.00;0.90;;;18.00;99.90;;;;;;5053221;28;20826;-78
2021/09/15 08:08:09;;;;;;;1.30;0.60;;;18.00;99.90;;;;;;5052868;28;20433;-78
2021/09/15 08:10:37;;;;;;;0.70;0.63;;;18.00;99.90;;;;;;5052851;28;20910;-78
2021/09/15 08:13:03;;;;;;;0.70;0.70;;;18.00;99.90;;;;;;5052902;28;20509;-78
2021/09/15 08:15:30;;;;;;;0.67;0.67;;;18.00;99.90;;;;;;5053101;28;20454;-79
2021/09/15 08:17:57;;;;;;;0.67;0.67;;;18.10;99.90;;;;;;5053053;28;20484;-78
2021/09/15 08:20:25;;;;;;;1.10;0.80;;;18.00;99.90;;;;;;5052810;28;20453;-79
2021/09/15 08:22:52;;;;;;;3.23;1.00;;;18.00;99.90;;;;;;5052752;28;20449;-78
2021/09/15 08:25:19;;;;;;;1.20;0.83;;;18.00;99.90;;;;;;5052731;28;20446;-83
2021/09/15 08:27:47;;;;;;;3.17;1.03;;;18.00;99.90;;;;;;5052785;28;20438;-84
2021/09/15 08:30:14;;;;;;;1.10;1.00;;;17.90;99.90;;;;;;5052959;28;20469;-81
2021/09/15 08:32:41;;;;;;;3.23;0.70;;;17.90;99.90;;;;;;5052973;28;20453;-78
2021/09/15 08:35:09;;;;;;;0.60;0.60;;;17.80;99.90;;;;;;5052873;28;20453;-79
2021/09/15 08:37:37;;;;;;;0.93;0.60;;;17.80;99.90;;;;;;5052858;28;20856;-78
2021/09/15 08:40:05;;;;;;;0.60;0.60;;;17.80;99.90;;;;;;5055675;28;20461;-78
2021/09/15 08:42:32;;;;;;;1.00;0.90;;;17.80;99.90;;;;;;5056760;28;20486;-80
2021/09/15 08:45:02;;;;;;;1.60;1.50;;;17.80;99.90;;;;;;5056272;28;20474;-80
2021/09/15 08:47:31;;;;;;;0.87;0.63;;;17.80;99.90;;;;;;5056781;28;20516;-82
2021/09/15 08:49:59;;;;;;;1.97;0.80;;;17.80;99.90;;;;;;5056276;28;20972;-78
2021/09/15 08:52:25;;;;;;;0.97;0.90;;;17.80;99.90;;;;;;5056660;28;20437;-77
2021/09/15 08:54:54;;;;;;;0.90;0.70;;;17.80;99.90;;;;;;5056534;28;20457;-77
2021/09/15 08:57:21;;;;;;;0.83;0.83;;;17.80;99.90;;;;;;5056464;28;20579;-77
2021/09/15 08:59:47;;;;;;;2.13;1.07;;;17.80;99.90;;;;;;5056421;28;20469;-77
2021/09/15 09:02:16;;;;;;;2.90;0.87;;;17.80;99.90;;;;;;5056408;28;20445;-77
2021/09/15 09:04:54;;;;;;;0.60;0.50;;;17.80;99.90;;;;;;5048464;28;20856;-80
2021/09/15 09:07:21;;;;;;;0.60;0.60;;;17.70;99.90;;;;;;5056435;28;20444;-82
2021/09/15 09:09:49;;;;;;;1.13;0.90;;;17.70;99.90;;;;;;5056258;28;20480;-81
2021/09/15 09:12:16;;;;;;;1.87;1.07;;;17.60;99.90;;;;;;5056038;28;20430;-81
2021/09/15 09:14:43;;;;;;;1.13;0.90;;;17.60;99.90;;;;;;5055903;28;20939;-81
2021/09/15 09:17:27;;;;;;;1.17;0.53;;;17.60;99.90;;;;;;5056225;28;20441;-83
2021/09/15 09:20:13;;;;;;;0.87;0.60;;;17.50;99.90;;;;;;5055998;28;20458;-82
2021/09/15 09:23:02;;;;;;;0.60;0.60;;;17.50;99.90;;;;;;5056105;28;20851;-83
2021/09/15 09:25:30;;;;;;;0.40;0.40;;;17.50;99.90;;;;;;5055984;28;20434;-83
2021/09/15 09:27:58;;;;;;;3.13;0.60;;;17.50;99.90;;;;;;5055999;28;20423;-83
2021/09/15 09:30:33;;;;;;;1.20;1.00;;;17.50;99.90;;;;;;5055854;28;20469;-82
2021/09/15 09:33:02;;;;;;;1.03;0.90;;;17.50;99.90;;;;;;5055559;28;20789;-80
2021/09/15 09:35:42;;;;;;;0.53;0.50;;;17.60;99.90;;;;;;5055902;28;20425;-80
2021/09/15 09:38:16;;;;;;;1.13;0.70;;;17.60;99.90;;;;;;5055639;28;20470;-80
2021/09/15 09:40:55;;;;;;;0.67;0.50;;;17.60;99.90;;;;;;5055731;28;20442;-80
2021/09/15 09:43:22;;;;;;;0.90;0.40;;;17.70;99.90;;;;;;5055404;28;20925;-83
2021/09/15 09:45:50;;;;;;;0.53;0.53;;;17.80;99.90;;;;;;5055338;28;20482;-83
2021/09/15 09:48:35;;;;;;;1.33;1.23;;;17.90;99.90;;;;;;5055570;28;20438;-82
2021/09/15 09:51:04;;;;;;;1.20;0.50;;;17.90;99.90;;;;;;5054619;28;20807;-83
2021/09/15 09:53:31;;;;;;;0.60;0.50;;;18.00;99.90;;;;;;5055818;28;20437;-82
2021/09/15 09:55:59;;;;;;;0.80;0.60;;;18.00;99.90;;;;;;5055475;28;20433;-84
2021/09/15 09:58:28;;;;;;;0.73;0.43;;;18.10;99.90;;;;;;5055318;28;20473;-84
2021/09/15 10:00:58;;;;;;;0.50;0.50;;;18.20;99.90;;;;;;5055433;28;20438;-84
2021/09/15 10:03:24;;;;;;;1.00;0.90;;;18.30;99.90;;;;;;5055512;28;20471;-85
2021/09/15 10:05:53;;;;;;;0.53;0.50;;;18.30;99.90;;;;;;5055283;28;20449;-84
2021/09/15 10:08:21;;;;;;;1.10;0.70;;;18.30;99.90;;;;;;5055257;28;20483;-84
2021/09/15 10:10:50;;;;;;;2.00;0.80;;;18.30;99.90;;;;;;5054883;28;20906;-82
2021/09/15 10:13:17;;;;;;;2.30;1.20;;;18.30;99.90;;;;;;5054898;28;20454;-82
2021/09/15 10:15:47;;;;;;;1.00;0.87;;;18.40;99.90;;;;;;5055072;28;20430;-82
2021/09/15 10:18:15;;;;;;;1.33;0.70;;;18.50;99.90;;;;;;5054597;28;20996;-82
2021/09/15 10:20:47;;;;;;;0.50;0.50;;;18.60;99.90;;;;;;5054675;28;20913;-83
2021/09/15 10:23:35;;;;;;;1.37;0.60;;;18.70;99.90;;;;;;5054980;28;20499;-82
2021/09/15 10:26:31;;;;;;;0.73;0.73;;;18.70;99.90;;;;;;5054881;28;20434;-83
2021/09/15 10:29:31;;;;;;;1.07;0.93;;;18.80;99.90;;;;;;5054759;28;20461;-83
2021/09/15 10:32:07;;;;;;;1.10;0.80;;;18.80;99.90;;;;;;5055731;28;20438;-83
2021/09/15 10:34:53;;;;;;;0.60;0.50;;;18.90;99.90;;;;;;5054649;28;20869;-83
2021/09/15 10:37:48;;;;;;;0.87;0.63;;;19.00;99.90;;;;;;5054773;28;20442;-83
2021/09/15 10:40:38;;;;;;;0.80;0.80;;;19.00;99.90;;;;;;5053015;28;20843;-83
2021/09/15 10:43:26;;;;;;;0.77;0.60;;;19.00;99.90;;;;;;5054549;28;20430;-83
2021/09/15 10:46:21;;;;;;;1.10;0.53;;;19.10;99.90;;;;;;5053784;28;20469;-83
2021/09/15 10:49:39;;;;;;;0.63;0.63;;;19.20;99.90;;;;;;5054347;28;20450;-83
2021/09/15 10:52:34;;;;;;;1.07;1.07;;;19.30;99.90;;;;;;5054365;28;20422;-83
2021/09/15 10:55:02;;;;;;;1.27;0.80;;;19.40;99.90;;;;;;5054073;28;20940;-83
2021/09/15 10:57:40;;;;;;;2.03;1.20;;;19.50;99.90;;;;;;5054047;28;20919;-81
2021/09/15 11:00:10;;;;;;;1.27;0.87;;;19.60;99.90;;;;;;5053784;28;20491;-81
2021/09/15 11:02:41;;;;;;;1.53;0.70;;;19.70;99.90;;;;;;5053242;28;20492;-80
2021/09/15 11:05:45;;;;;;;1.47;1.07;;;19.70;99.90;;;;;;5054154;28;20446;-81
2021/09/15 11:08:21;;;;;;;1.03;0.60;;;19.70;99.90;;;;;;5054011;28;20429;-81
2021/09/15 11:10:48;;;;;;;1.27;1.17;;;19.70;99.90;;;;;;5054064;28;20429;-81
2021/09/15 11:13:37;;;;;;;0.60;0.60;;;19.60;99.90;;;;;;5053703;28;20429;-81
2021/09/15 11:16:24;;;;;;;1.10;0.83;;;19.60;99.90;;;;;;5054160;28;20499;-81
2021/09/15 11:18:54;;;;;;;1.60;0.70;;;19.70;99.90;;;;;;5053683;28;20546;-80
2021/09/15 11:21:22;;;;;;;0.83;0.70;;;19.70;99.90;;;;;;5053891;28;20437;-80
2021/09/15 11:23:53;;;;;;;2.27;0.73;;;19.70;99.90;;;;;;5053870;28;20434;-80
2021/09/15 11:26:35;;;;;;;2.63;0.87;;;19.50;99.90;;;;;;5053815;28;20426;-81
2021/09/15 11:29:03;;;;;;;0.90;0.70;;;19.50;99.90;;;;;;5053619;28;20465;-80
2021/09/15 11:31:33;;;;;;;1.40;0.90;;;19.50;99.90;;;;;;5053694;28;20434;-81
2021/09/15 11:34:09;;;;;;;0.70;0.70;;;19.50;99.90;;;;;;5053462;28;20801;-81
2021/09/15 11:36:36;;;;;;;0.60;0.50;;;19.40;99.90;;;;;;5053386;28;20410;-81
2021/09/15 11:39:03;;;;;;;0.60;0.53;;;19.40;99.90;;;;;;5053237;28;20488;-81
2021/09/15 11:41:30;;;;;;;1.10;1.00;;;19.40;99.90;;;;;;5053548;28;20433;-81
2021/09/15 11:43:56;;;;;;;1.00;0.73;;;19.40;99.90;;;;;;5053233;28;20437;-81
2021/09/15 11:46:34;;;;;;;0.80;0.80;;;19.40;99.90;;;;;;5053021;28;20542;-81
2021/09/15 11:49:01;;;;;;;1.33;1.23;;;19.50;99.90;;;;;;5053069;28;20969;-80
2021/09/15 11:51:30;;;;;;;1.00;1.00;;;19.50;99.90;;;;;;5053216;28;20781;-80
2021/09/15 11:54:01;;;;;;;1.27;0.90;;;19.50;99.90;;;;;;5053090;28;20433;-80
2021/09/15 11:56:32;;;;;;;0.80;0.80;;;19.50;99.90;;;;;;5053382;28;20429;-80
2021/09/15 11:58:59;;;;;;;0.80;0.73;;;19.60;99.90;;;;;;5053121;28;20481;-80
2021/09/15 12:01:30;;;;;;;0.77;0.60;;;19.60;99.90;;;;;;5053277;28;20468;-80
2021/09/15 12:03:58;;;;;;;1.27;0.83;;;19.50;99.90;;;;;;5053197;28;20449;-80
2021/09/15 12:06:25;;;;;;;1.43;1.07;;;19.60;99.90;;;;;;5052908;28;20806;-80
2021/09/15 12:08:53;;;;;;;2.23;0.80;;;19.60;99.90;;;;;;5053122;28;20465;-80
2021/09/15 12:11:20;;;;;;;0.77;0.77;;;19.60;99.90;;;;;;5053180;28;20536;-80
2021/09/15 12:13:53;;;;;;;1.30;1.20;;;19.60;99.90;;;;;;5053774;28;20449;-80
2021/09/15 12:16:28;;;;;;;2.33;0.90;;;19.60;99.90;;;;;;5057329;28;20448;-80
2021/09/15 12:18:55;;;;;;;1.37;0.80;;;19.60;99.90;;;;;;5057084;28;20480;-80
2021/09/15 12:21:24;;;;;;;1.30;0.70;;;19.60;99.90;;;;;;5057179;28;20520;-80
2021/09/15 12:23:51;;;;;;;0.90;0.80;;;19.60;99.90;;;;;;5056810;28;20809;-80
2021/09/15 12:26:25;;;;;;;3.47;1.20;;;19.70;99.90;;;;;;5057124;28;20460;-80
2021/09/15 12:29:04;;;;;;;0.70;0.70;;;19.70;99.90;;;;;;5057154;28;20466;-80
2021/09/15 12:31:47;;;;;;;1.30;1.00;;;19.80;99.90;;;;;;5057086;28;20430;-80
2021/09/15 12:34:16;;;;;;;1.20;1.10;;;19.90;99.90;;;;;;5056987;28;20453;-80
2021/09/15 12:36:43;;;;;;;0.70;0.60;;;20.00;99.90;;;;;;5056736;28;20448;-80
2021/09/15 12:39:15;;;;;;;1.43;1.10;;;20.00;99.90;;;;;;5056770;28;20489;-80
2021/09/15 12:41:56;;;;;;;0.77;0.67;;;20.10;99.90;;;;;;5056539;28;20461;-81
2021/09/15 12:44:27;;;;;;;1.23;0.60;;;20.20;99.90;;;;;;5056846;28;20451;-80
2021/09/15 12:46:56;;;;;;;0.90;0.90;;;20.30;99.90;;;;;;5056404;28;20489;-80
2021/09/15 12:49:31;;;;;;;0.83;0.80;;;20.30;99.90;;;;;;5056553;28;20475;-80
2021/09/15 12:52:06;;;;;;;0.70;0.70;;;20.40;99.90;;;;;;5056709;28;20433;-80
2021/09/15 12:54:34;;;;;;;0.87;0.80;;;20.40;99.90;;;;;;5056363;28;20444;-80
2021/09/15 12:57:26;;;;;;;2.47;1.13;;;20.50;99.90;;;;;;5056613;28;20456;-80
2021/09/15 12:59:53;;;;;;;1.43;0.50;;;20.70;99.90;;;;;;5056194;28;20559;-80
2021/09/15 13:02:24;;;;;;;0.67;0.67;;;20.70;99.90;;;;;;5056509;28;20449;-80
2021/09/15 13:04:51;;;;;;;2.30;1.03;;;20.80;99.90;;;;;;5056497;28;20437;-80